createdAt,value
2023-03-01T00:02:13.420Z,2.17
2023-03-01T00:11:26.113Z,1.90
2023-03-01T00:13:58.500Z,2.15
2023-03-01T00:18:58.341Z,2.00
2023-03-01T00:21:28.359Z,2.10
2023-03-01T00:23:58.782Z,2.58
2023-03-01T00:26:28.492Z,1.90
2023-03-01T00:29:03.135Z,2.17
2023-03-01T00:31:55.801Z,2.25
2023-03-01T00:34:26.708Z,2.05
2023-03-01T00:36:56.509Z,1.70
2023-03-01T00:39:23.246Z,2.35
2023-03-01T00:41:52.766Z,2.50
2023-03-01T00:44:22.737Z,1.92
2023-03-01T00:47:13.501Z,2.25
2023-03-01T00:49:46.242Z,2.25
2023-03-01T00:52:47.226Z,1.88
2023-03-01T00:55:44.625Z,2.20
2023-03-01T01:01:26.008Z,2.05
2023-03-01T01:06:32.670Z,2.33
2023-03-01T01:09:09.771Z,1.83
2023-03-01T01:11:47.233Z,1.90
2023-03-01T01:17:10.716Z,2.22
2023-03-01T01:22:24.406Z,2.10
2023-03-01T01:24:51.494Z,1.70
2023-03-01T01:27:24.114Z,2.05
2023-03-01T01:33:03.559Z,1.83
2023-03-01T01:44:15.224Z,2.15
2023-03-01T01:50:08.942Z,2.00
2023-03-01T01:52:38.423Z,1.85
2023-03-01T01:56:07.751Z,1.95
2023-03-01T01:58:34.535Z,2.00
2023-03-01T02:01:02.618Z,2.10
2023-03-01T02:03:38.326Z,1.83
2023-03-01T02:06:12.012Z,2.00
2023-03-01T02:11:41.947Z,1.75
2023-03-01T02:14:23.700Z,2.42
2023-03-01T02:16:51.322Z,2.03
2023-03-01T02:19:40.161Z,1.73
2023-03-01T02:22:24.921Z,2.10
2023-03-01T02:25:13.770Z,2.20
2023-03-01T02:28:00.252Z,2.00
2023-03-01T02:33:18.532Z,1.88
2023-03-01T02:35:55.649Z,2.00
2023-03-01T02:41:06.960Z,2.20
2023-03-01T02:43:35.074Z,2.10
2023-03-01T02:46:08.577Z,2.38
2023-03-01T02:48:43.035Z,2.50
2023-03-01T02:51:34.095Z,2.38
2023-03-01T02:54:25.279Z,2.20
2023-03-01T02:56:52.759Z,1.83
2023-03-01T02:59:22.163Z,1.90
2023-03-01T03:01:49.146Z,2.15
2023-03-01T03:10:26.370Z,2.10
2023-03-01T03:12:55.833Z,2.30
2023-03-01T03:18:51.819Z,1.77
2023-03-01T03:21:18.574Z,2.20
2023-03-01T03:23:45.596Z,2.20
2023-03-01T03:26:14.457Z,2.42
2023-03-01T03:28:41.393Z,1.85
2023-03-01T03:31:09.017Z,1.92
2023-03-01T03:33:36.102Z,3.00
2023-03-01T03:36:18.753Z,2.17
2023-03-01T03:38:46.806Z,2.15
2023-03-01T03:41:14.208Z,2.45
2023-03-01T03:47:45.528Z,2.13
2023-03-01T03:57:16.506Z,2.35
2023-03-01T03:59:43.272Z,2.00
2023-03-01T04:02:10.186Z,2.60
2023-03-01T04:04:39.106Z,2.47
2023-03-01T04:07:05.792Z,2.28
2023-03-01T04:09:32.497Z,1.90
2023-03-01T04:11:59.294Z,2.42
2023-03-01T04:14:50.922Z,2.03
2023-03-01T04:17:23.799Z,2.30
2023-03-01T04:19:58.235Z,2.13
2023-03-01T04:22:30.597Z,2.10
2023-03-01T04:28:05.459Z,2.78
2023-03-01T04:30:36.670Z,1.85
2023-03-01T04:33:08.103Z,2.08
2023-03-01T04:35:37.703Z,1.90
2023-03-01T04:38:05.438Z,2.20
2023-03-01T04:44:10.629Z,2.22
2023-03-01T04:46:37.485Z,2.00
2023-03-01T04:55:28.003Z,2.15
2023-03-01T05:00:36.410Z,1.70
2023-03-01T05:03:58.405Z,1.83
2023-03-01T05:06:25.139Z,2.72
2023-03-01T05:15:28.874Z,2.00
2023-03-01T05:17:59.513Z,2.05
2023-03-01T05:20:37.222Z,2.42
2023-03-01T05:23:07.489Z,2.20
2023-03-01T05:25:35.640Z,2.10
2023-03-01T05:28:05.399Z,2.13
2023-03-01T05:30:36.140Z,2.10
2023-03-01T05:33:03.490Z,2.53
2023-03-01T05:38:16.463Z,2.20
2023-03-01T05:40:45.171Z,2.00
2023-03-01T05:46:57.554Z,2.05
2023-03-01T05:49:25.049Z,2.38
2023-03-01T05:51:53.814Z,1.85
2023-03-01T05:54:22.734Z,2.20
2023-03-01T06:06:39.502Z,2.00
2023-03-01T06:09:08.329Z,2.03
2023-03-01T06:15:23.661Z,2.00
2023-03-01T06:17:53.394Z,1.60
2023-03-01T06:20:22.495Z,2.53
2023-03-01T06:22:50.288Z,2.03
2023-03-01T06:25:19.813Z,2.20
2023-03-01T06:27:47.212Z,2.33
2023-03-01T06:31:14.739Z,2.00
2023-03-01T06:33:41.507Z,2.20
2023-03-01T06:36:09.101Z,1.92
2023-03-01T06:38:35.974Z,2.20
2023-03-01T06:43:38.251Z,1.95
2023-03-01T06:49:46.606Z,2.30
2023-03-01T06:52:13.345Z,1.80
2023-03-01T06:54:41.284Z,1.88
2023-03-01T06:57:08.033Z,2.13
2023-03-01T06:59:34.861Z,2.28
2023-03-01T07:02:05.277Z,1.95
2023-03-01T07:04:32.122Z,2.50
2023-03-01T07:06:58.968Z,2.42
2023-03-01T07:09:26.165Z,2.03
2023-03-01T07:11:52.942Z,2.63
2023-03-01T07:14:20.767Z,2.75
2023-03-01T07:16:49.107Z,1.90
2023-03-01T07:19:15.847Z,2.15
2023-03-01T07:21:42.699Z,2.00
2023-03-01T07:24:09.952Z,2.30
2023-03-01T07:26:37.165Z,2.70
2023-03-01T07:29:24.878Z,2.35
2023-03-01T07:32:02.179Z,3.60
2023-03-01T07:34:29.125Z,3.22
2023-03-01T07:36:56.403Z,3.08
2023-03-01T07:39:24.195Z,3.58
2023-03-01T07:41:51.641Z,3.47
2023-03-01T07:44:18.636Z,3.10
2023-03-01T07:46:45.491Z,2.42
2023-03-01T07:49:12.500Z,2.67
2023-03-01T07:51:41.649Z,3.15
2023-03-01T07:54:08.495Z,3.10
2023-03-01T07:56:56.664Z,2.75
2023-03-01T07:59:29.795Z,3.30
2023-03-01T08:01:57.731Z,3.22
2023-03-01T08:08:01.985Z,3.40
2023-03-01T08:10:31.853Z,2.70
2023-03-01T08:13:11.083Z,2.97
2023-03-01T08:15:37.830Z,2.70
2023-03-01T08:18:04.650Z,3.28
2023-03-01T08:20:31.731Z,3.95
2023-03-01T08:23:00.617Z,2.95
2023-03-01T08:25:27.581Z,3.30
2023-03-01T08:27:54.672Z,2.97
2023-03-01T08:30:21.809Z,3.15
2023-03-01T08:32:48.867Z,3.80
2023-03-01T08:35:15.710Z,3.20
2023-03-01T08:37:43.850Z,2.90
2023-03-01T08:40:11.265Z,2.70
2023-03-01T08:42:40.641Z,3.25
2023-03-01T08:45:14.167Z,3.25
2023-03-01T08:47:41.040Z,2.70
2023-03-01T08:50:16.655Z,3.10
2023-03-01T08:52:56.249Z,2.80
2023-03-01T08:55:23.180Z,2.83
2023-03-01T08:57:49.897Z,3.17
2023-03-01T09:00:18.443Z,3.00
2023-03-01T09:02:45.282Z,3.17
2023-03-01T09:05:12.134Z,3.05
2023-03-01T09:07:40.216Z,3.00
2023-03-01T09:10:07.321Z,3.20
2023-03-01T09:12:50.268Z,3.50
2023-03-01T09:15:20.598Z,2.60
2023-03-01T09:20:38.286Z,3.08
2023-03-01T09:23:07.710Z,2.60
2023-03-01T09:25:37.746Z,2.92
2023-03-01T09:28:04.778Z,2.90
2023-03-01T09:30:34.739Z,3.47
2023-03-01T09:33:01.601Z,3.00
2023-03-01T09:35:29.214Z,2.75
2023-03-01T09:37:56.111Z,2.85
2023-03-01T09:40:29.527Z,2.72
2023-03-01T09:43:04.645Z,2.80
2023-03-01T09:45:36.530Z,3.25
2023-03-01T09:48:41.596Z,3.20
2023-03-01T09:51:13.716Z,3.33
2023-03-01T09:53:46.602Z,2.92
2023-03-01T09:56:30.715Z,2.97
2023-03-01T09:59:15.394Z,3.90
2023-03-01T10:11:45.864Z,3.30
2023-03-01T10:14:30.677Z,3.78
2023-03-01T10:17:20.399Z,3.63
2023-03-01T10:19:48.015Z,3.30
2023-03-01T10:22:32.442Z,4.22
2023-03-01T10:25:04.452Z,3.75
2023-03-01T10:27:52.888Z,3.60
2023-03-01T10:30:30.751Z,3.72
2023-03-01T10:33:24.318Z,3.70
2023-03-01T10:35:51.307Z,3.20
2023-03-01T10:38:55.621Z,3.50
2023-03-01T10:42:13.663Z,3.33
2023-03-01T10:44:42.263Z,3.65
2023-03-01T10:47:25.526Z,3.45
2023-03-01T10:49:55.180Z,3.95
2023-03-01T10:52:26.115Z,3.70
2023-03-01T10:58:09.227Z,3.75
2023-03-01T11:00:59.094Z,4.32
2023-03-01T11:03:31.572Z,3.90
2023-03-01T11:06:01.839Z,3.60
2023-03-01T11:08:45.568Z,4.07
2023-03-01T11:11:33.947Z,3.80
2023-03-01T11:14:10.472Z,3.40
2023-03-01T11:16:45.803Z,3.78
2023-03-01T11:22:59.181Z,3.85
2023-03-01T11:28:24.310Z,3.17
2023-03-01T11:31:09.082Z,2.67
2023-03-01T11:34:08.364Z,3.13
2023-03-01T11:36:59.641Z,3.90
2023-03-01T11:49:28.905Z,3.17
2023-03-01T11:52:21.256Z,3.38
2023-03-01T11:55:20.014Z,2.75
2023-03-01T11:58:08.268Z,2.83
2023-03-01T12:01:07.867Z,3.40
2023-03-01T12:04:05.759Z,3.22
2023-03-01T12:06:54.401Z,2.95
2023-03-01T12:12:28.236Z,3.00
2023-03-01T12:15:34.729Z,2.78
2023-03-01T12:18:07.335Z,3.20
2023-03-01T12:21:00.825Z,2.92
2023-03-01T12:23:58.497Z,3.22
2023-03-01T12:29:49.964Z,3.58
2023-03-01T12:32:24.152Z,3.63
2023-03-01T12:35:28.622Z,3.10
2023-03-01T12:38:27.897Z,3.25
2023-03-01T12:41:34.539Z,3.03
2023-03-01T12:47:45.934Z,2.58
2023-03-01T12:50:19.770Z,3.08
2023-03-01T12:52:59.299Z,3.45
2023-03-01T12:55:38.990Z,2.80
2023-03-01T12:58:49.065Z,2.85
2023-03-01T13:01:35.425Z,2.85
2023-03-01T13:04:45.829Z,2.92
2023-03-01T13:07:42.761Z,3.05
2023-03-01T13:10:25.842Z,2.80
2023-03-01T13:12:58.882Z,2.38
2023-03-01T13:15:28.104Z,2.90
2023-03-01T13:18:26.338Z,2.70
2023-03-01T13:20:59.232Z,2.72
2023-03-01T13:23:34.558Z,2.80
2023-03-01T13:26:13.606Z,2.85
2023-03-01T13:28:47.087Z,2.67
2023-03-01T13:31:16.782Z,2.58
2023-03-01T13:33:54.235Z,2.65
2023-03-01T13:36:30.736Z,2.90
2023-03-01T13:39:00.098Z,2.45
2023-03-01T13:44:58.585Z,2.63
2023-03-01T13:47:28.378Z,2.85
2023-03-01T13:50:07.527Z,2.60
2023-03-01T13:52:41.810Z,3.00
2023-03-01T13:56:01.573Z,2.42
2023-03-01T13:58:33.636Z,2.67
2023-03-01T14:01:06.725Z,2.92
2023-03-01T14:03:42.657Z,2.42
2023-03-01T14:06:31.080Z,2.60
2023-03-01T14:09:20.895Z,2.95
2023-03-01T14:12:05.872Z,2.88
2023-03-01T14:14:45.681Z,2.83
2023-03-01T14:17:29.797Z,2.40
2023-03-01T14:20:10.419Z,2.85
2023-03-01T14:22:38.105Z,2.20
2023-03-01T14:25:28.435Z,2.85
2023-03-01T14:28:20.844Z,2.88
2023-03-01T14:33:42.890Z,2.65
2023-03-01T14:36:16.289Z,2.58
2023-03-01T14:38:46.064Z,2.63
2023-03-01T14:41:24.702Z,3.00
2023-03-01T14:44:06.640Z,2.28
2023-03-01T14:46:39.746Z,2.95
2023-03-01T14:49:21.930Z,2.70
2023-03-01T14:52:03.028Z,2.55
2023-03-01T14:54:55.062Z,2.75
2023-03-01T14:57:33.338Z,2.42
2023-03-01T15:00:10.563Z,2.35
2023-03-01T15:02:54.983Z,2.80
2023-03-01T15:05:42.372Z,2.50
2023-03-01T15:08:22.161Z,2.90
2023-03-01T15:11:23.271Z,2.25
2023-03-01T15:13:50.595Z,2.80
2023-03-01T15:16:21.854Z,2.47
2023-03-01T15:18:52.253Z,2.30
2023-03-01T15:24:20.240Z,2.35
2023-03-01T15:27:07.752Z,2.88
2023-03-01T15:31:16.905Z,2.60
2023-03-01T15:32:35.277Z,2.90
2023-03-01T15:35:23.020Z,2.55
2023-03-01T15:37:50.600Z,2.72
2023-03-01T15:40:32.616Z,2.72
2023-03-01T15:43:02.179Z,2.47
2023-03-01T15:45:31.621Z,2.75
2023-03-01T15:48:06.828Z,2.60
2023-03-01T15:50:40.919Z,2.90
2023-03-01T15:53:12.830Z,3.00
2023-03-01T15:55:39.695Z,2.63
2023-03-01T15:58:25.592Z,2.72
2023-03-01T16:09:33.047Z,2.95
2023-03-01T16:11:59.817Z,2.47
2023-03-01T16:14:26.672Z,2.83
2023-03-01T16:16:53.491Z,2.53
2023-03-01T16:22:10.735Z,2.58
2023-03-01T16:24:37.447Z,2.17
2023-03-01T16:27:04.716Z,2.70
2023-03-01T16:29:31.634Z,2.63
2023-03-01T16:32:02.417Z,2.83
2023-03-01T16:34:29.617Z,2.50
2023-03-01T16:38:10.517Z,2.90
2023-03-01T16:41:05.444Z,3.13
2023-03-01T16:43:32.519Z,2.30
2023-03-01T16:45:59.972Z,2.88
2023-03-01T16:48:27.186Z,2.67
2023-03-01T16:50:59.374Z,2.75
2023-03-01T16:53:26.293Z,2.72
2023-03-01T16:56:00.109Z,2.22
2023-03-01T16:58:27.163Z,2.92
2023-03-01T17:00:55.261Z,2.60
2023-03-01T17:03:23.817Z,3.05
2023-03-01T17:05:50.845Z,2.33
2023-03-01T17:08:18.296Z,2.22
2023-03-01T17:10:45.155Z,2.85
2023-03-01T17:17:03.693Z,2.47
2023-03-01T17:19:32.830Z,2.47
2023-03-01T17:22:07.376Z,2.72
2023-03-01T17:24:40.346Z,2.60
2023-03-01T17:27:08.263Z,2.55
2023-03-01T17:29:36.108Z,2.33
2023-03-01T17:32:04.265Z,2.58
2023-03-01T17:34:32.931Z,2.97
2023-03-01T23:40:34.186Z,1.13
2023-03-01T23:43:18.184Z,1.55
